sensor_id;sensor_type;location;lat;lon;timestamp;temperature;humidity
18268;DHT22;9260;49.998;19.880;2024-02-14T00:06:46;0.80;1.00
18268;DHT22;9260;49.998;19.880;2024-02-14T00:16:50;0.30;1.00
18268;DHT22;9260;49.998;19.880;2024-02-14T00:26:53;-0.20;1.00
18268;DHT22;9260;49.998;19.880;2024-02-14T00:37:00;0.70;1.00
18268;DHT22;9260;49.998;19.880;2024-02-14T00:47:03;0.50;1.00
18268;DHT22;9260;49.998;19.880;2024-02-14T00:57:08;0.40;1.00
18268;DHT22;9260;49.998;19.880;2024-02-14T01:07:11;0.60;1.00
18268;DHT22;9260;49.998;19.880;2024-02-14T01:17:16;0.80;1.00
18268;DHT22;9260;49.998;19.880;2024-02-14T01:27:19;0.80;1.00
18268;DHT22;9260;49.998;19.880;2024-02-14T01:37:25;1.10;1.00
18268;DHT22;9260;49.998;19.880;2024-02-14T01:47:31;0.80;1.00
18268;DHT22;9260;49.998;19.880;2024-02-14T01:57:36;1.20;1.00
18268;DHT22;9260;49.998;19.880;2024-02-14T02:07:40;0.70;1.00
18268;DHT22;9260;49.998;19.880;2024-02-14T02:17:46;0.30;1.00
18268;DHT22;9260;49.998;19.880;2024-02-14T02:27:56;0.50;1.00
18268;DHT22;9260;49.998;19.880;2024-02-14T02:38:00;0.70;1.00
18268;DHT22;9260;49.998;19.880;2024-02-14T02:48:05;0.30;1.00
18268;DHT22;9260;49.998;19.880;2024-02-14T02:58:09;0.60;1.00
18268;DHT22;9260;49.998;19.880;2024-02-14T03:08:14;0.40;1.00
18268;DHT22;9260;49.998;19.880;2024-02-14T03:18:18;0.50;1.00
18268;DHT22;9260;49.998;19.880;2024-02-14T03:28:22;0.40;1.00
18268;DHT22;9260;49.998;19.880;2024-02-14T03:38:26;0.70;1.00
18268;DHT22;9260;49.998;19.880;2024-02-14T03:48:32;0.40;1.00
18268;DHT22;9260;49.998;19.880;2024-02-14T03:58:35;0.40;1.00
18268;DHT22;9260;49.998;19.880;2024-02-14T04:08:40;0.30;1.00
18268;DHT22;9260;49.998;19.880;2024-02-14T04:18:43;0.00;1.00
18268;DHT22;9260;49.998;19.880;2024-02-14T04:28:48;0.20;1.00
18268;DHT22;9260;49.998;19.880;2024-02-14T04:38:52;0.30;1.00
18268;DHT22;9260;49.998;19.880;2024-02-14T04:48:58;-0.20;1.00
18268;DHT22;9260;49.998;19.880;2024-02-14T04:59:02;0.20;1.00
18268;DHT22;9260;49.998;19.880;2024-02-14T05:09:08;-1.00;1.00
18268;DHT22;9260;49.998;19.880;2024-02-14T05:19:12;-1.50;1.00
18268;DHT22;9260;49.998;19.880;2024-02-14T05:29:17;-0.90;1.00
18268;DHT22;9260;49.998;19.880;2024-02-14T05:39:22;-1.70;1.00
18268;DHT22;9260;49.998;19.880;2024-02-14T05:49:26;-1.90;1.00
18268;DHT22;9260;49.998;19.880;2024-02-14T05:59:30;-1.80;1.00
18268;DHT22;9260;49.998;19.880;2024-02-14T06:09:35;-1.90;1.00
18268;DHT22;9260;49.998;19.880;2024-02-14T06:19:38;-1.90;1.00
18268;DHT22;9260;49.998;19.880;2024-02-14T06:29:44;-1.60;1.00
18268;DHT22;9260;49.998;19.880;2024-02-14T06:39:48;-1.30;1.00
18268;DHT22;9260;49.998;19.880;2024-02-14T06:49:52;-1.10;1.00
18268;DHT22;9260;49.998;19.880;2024-02-14T06:59:55;0.10;1.00
18268;DHT22;9260;49.998;19.880;2024-02-14T07:10:00;2.60;99.90
18268;DHT22;9260;49.998;19.880;2024-02-14T07:20:04;4.90;1.00
18268;DHT22;9260;49.998;19.880;2024-02-14T07:30:12;6.60;1.00
18268;DHT22;9260;49.998;19.880;2024-02-14T07:40:16;10.20;1.00
18268;DHT22;9260;49.998;19.880;2024-02-14T07:50:21;16.80;1.00
18268;DHT22;9260;49.998;19.880;2024-02-14T08:00:24;20.50;1.00
18268;DHT22;9260;49.998;19.880;2024-02-14T08:10:29;23.30;1.00
18268;DHT22;9260;49.998;19.880;2024-02-14T08:20:32;23.90;1.00
18268;DHT22;9260;49.998;19.880;2024-02-14T08:30:37;25.60;1.00
18268;DHT22;9260;49.998;19.880;2024-02-14T08:40:41;28.60;1.00
18268;DHT22;9260;49.998;19.880;2024-02-14T08:50:46;29.70;1.00
18268;DHT22;9260;49.998;19.880;2024-02-14T09:00:50;30.50;1.00
18268;DHT22;9260;49.998;19.880;2024-02-14T09:11:11;31.40;1.00
18268;DHT22;9260;49.998;19.880;2024-02-14T09:21:14;33.20;1.00
18268;DHT22;9260;49.998;19.880;2024-02-14T09:31:21;33.50;1.00
18268;DHT22;9260;49.998;19.880;2024-02-14T09:41:25;34.10;1.00
18268;DHT22;9260;49.998;19.880;2024-02-14T09:51:30;35.50;1.00
18268;DHT22;9260;49.998;19.880;2024-02-14T10:01:34;35.30;1.00
18268;DHT22;9260;49.998;19.880;2024-02-14T10:11:39;35.80;1.00
18268;DHT22;9260;49.998;19.880;2024-02-14T10:21:43;37.10;1.00
18268;DHT22;9260;49.998;19.880;2024-02-14T10:31:48;37.00;1.00
18268;DHT22;9260;49.998;19.880;2024-02-14T10:41:52;37.80;1.00
18268;DHT22;9260;49.998;19.880;2024-02-14T10:51:57;38.50;1.00
18268;DHT22;9260;49.998;19.880;2024-02-14T11:02:04;37.90;1.00
18268;DHT22;9260;49.998;19.880;2024-02-14T11:12:09;37.00;1.00
18268;DHT22;9260;49.998;19.880;2024-02-14T11:22:17;35.50;1.00
18268;DHT22;9260;49.998;19.880;2024-02-14T11:32:23;33.70;1.00
18268;DHT22;9260;49.998;19.880;2024-02-14T11:42:26;32.30;1.00
18268;DHT22;9260;49.998;19.880;2024-02-14T11:52:32;36.70;1.00
18268;DHT22;9260;49.998;19.880;2024-02-14T12:02:35;39.90;1.00
18268;DHT22;9260;49.998;19.880;2024-02-14T12:12:40;40.00;1.00
18268;DHT22;9260;49.998;19.880;2024-02-14T12:22:43;38.80;1.00
18268;DHT22;9260;49.998;19.880;2024-02-14T12:32:57;39.70;1.00
18268;DHT22;9260;49.998;19.880;2024-02-14T12:43:00;39.20;1.00
18268;DHT22;9260;49.998;19.880;2024-02-14T12:53:06;36.90;1.00
18268;DHT22;9260;49.998;19.880;2024-02-14T13:03:09;38.00;1.00
18268;DHT22;9260;49.998;19.880;2024-02-14T13:13:18;37.60;1.00
18268;DHT22;9260;49.998;19.880;2024-02-14T13:23:21;36.40;1.00
18268;DHT22;9260;49.998;19.880;2024-02-14T13:33:28;35.50;1.00
18268;DHT22;9260;49.998;19.880;2024-02-14T13:43:31;35.00;1.00
18268;DHT22;9260;49.998;19.880;2024-02-14T13:53:36;33.50;1.00
18268;DHT22;9260;49.998;19.880;2024-02-14T14:03:41;29.60;1.00
18268;DHT22;9260;49.998;19.880;2024-02-14T14:13:45;29.40;1.00
18268;DHT22;9260;49.998;19.880;2024-02-14T14:23:49;27.60;1.00
18268;DHT22;9260;49.998;19.880;2024-02-14T14:33:53;25.50;1.00
18268;DHT22;9260;49.998;19.880;2024-02-14T14:43:59;19.60;1.00
18268;DHT22;9260;49.998;19.880;2024-02-14T14:54:03;14.80;1.00
18268;DHT22;9260;49.998;19.880;2024-02-14T15:04:07;12.70;1.00
18268;DHT22;9260;49.998;19.880;2024-02-14T15:14:12;10.20;1.00
18268;DHT22;9260;49.998;19.880;2024-02-14T15:24:15;10.00;1.00
18268;DHT22;9260;49.998;19.880;2024-02-14T15:34:20;9.60;3.70
18268;DHT22;9260;49.998;19.880;2024-02-14T15:44:27;9.00;25.60
18268;DHT22;9260;49.998;19.880;2024-02-14T15:54:33;8.40;21.10
18268;DHT22;9260;49.998;19.880;2024-02-14T16:04:36;7.40;1.00
18268;DHT22;9260;49.998;19.880;2024-02-14T16:14:42;6.20;83.80
18268;DHT22;9260;49.998;19.880;2024-02-14T16:24:46;6.10;93.40
18268;DHT22;9260;49.998;19.880;2024-02-14T16:34:52;5.20;73.80
18268;DHT22;9260;49.998;19.880;2024-02-14T16:44:55;4.20;99.90
18268;DHT22;9260;49.998;19.880;2024-02-14T16:55:00;4.00;94.60
18268;DHT22;9260;49.998;19.880;2024-02-14T17:05:04;3.10;99.90
18268;DHT22;9260;49.998;19.880;2024-02-14T17:15:09;2.30;99.90
18268;DHT22;9260;49.998;19.880;2024-02-14T17:25:13;2.20;99.90
18268;DHT22;9260;49.998;19.880;2024-02-14T17:35:17;1.90;99.90
18268;DHT22;9260;49.998;19.880;2024-02-14T17:45:21;1.80;99.90
18268;DHT22;9260;49.998;19.880;2024-02-14T17:55:26;1.40;99.90
18268;DHT22;9260;49.998;19.880;2024-02-14T18:05:30;1.50;99.90
18268;DHT22;9260;49.998;19.880;2024-02-14T18:15:34;1.50;99.90
18268;DHT22;9260;49.998;19.880;2024-02-14T18:25:38;1.70;99.90
18268;DHT22;9260;49.998;19.880;2024-02-14T18:35:43;1.60;99.90
18268;DHT22;9260;49.998;19.880;2024-02-14T18:45:47;1.40;99.90
18268;DHT22;9260;49.998;19.880;2024-02-14T18:55:51;2.10;91.70
18268;DHT22;9260;49.998;19.880;2024-02-14T19:05:57;1.30;99.90
18268;DHT22;9260;49.998;19.880;2024-02-14T19:16:01;1.70;99.90
18268;DHT22;9260;49.998;19.880;2024-02-14T19:26:13;1.70;99.90
18268;DHT22;9260;49.998;19.880;2024-02-14T19:36:18;1.70;58.00
18268;DHT22;9260;49.998;19.880;2024-02-14T19:46:21;1.90;99.90
18268;DHT22;9260;49.998;19.880;2024-02-14T19:56:27;2.20;69.50
18268;DHT22;9260;49.998;19.880;2024-02-14T20:06:30;1.90;99.90
18268;DHT22;9260;49.998;19.880;2024-02-14T20:16:35;2.10;99.90
18268;DHT22;9260;49.998;19.880;2024-02-14T20:26:38;2.00;99.90
18268;DHT22;9260;49.998;19.880;2024-02-14T20:36:46;2.50;99.90
18268;DHT22;9260;49.998;19.880;2024-02-14T20:46:49;2.20;99.90
18268;DHT22;9260;49.998;19.880;2024-02-14T20:56:54;2.40;99.90
18268;DHT22;9260;49.998;19.880;2024-02-14T21:06:58;2.00;99.90
18268;DHT22;9260;49.998;19.880;2024-02-14T21:17:03;2.00;99.90
18268;DHT22;9260;49.998;19.880;2024-02-14T21:27:06;1.80;99.90
18268;DHT22;9260;49.998;19.880;2024-02-14T21:37:12;2.30;99.90
18268;DHT22;9260;49.998;19.880;2024-02-14T21:47:15;2.20;99.90
18268;DHT22;9260;49.998;19.880;2024-02-14T21:57:20;2.40;99.90
18268;DHT22;9260;49.998;19.880;2024-02-14T22:07:25;2.20;99.90
18268;DHT22;9260;49.998;19.880;2024-02-14T22:17:30;1.90;99.90
18268;DHT22;9260;49.998;19.880;2024-02-14T22:27:34;1.90;99.90
18268;DHT22;9260;49.998;19.880;2024-02-14T22:37:39;1.90;99.90
18268;DHT22;9260;49.998;19.880;2024-02-14T22:47:42;2.30;99.90
18268;DHT22;9260;49.998;19.880;2024-02-14T22:57:47;2.40;99.90
18268;DHT22;9260;49.998;19.880;2024-02-14T23:07:50;2.70;99.90
18268;DHT22;9260;49.998;19.880;2024-02-14T23:17:58;2.80;99.90
18268;DHT22;9260;49.998;19.880;2024-02-14T23:28:02;2.80;99.90
18268;DHT22;9260;49.998;19.880;2024-02-14T23:38:09;2.90;99.90
18268;DHT22;9260;49.998;19.880;2024-02-14T23:48:13;3.20;99.90
18268;DHT22;9260;49.998;19.880;2024-02-14T23:58:18;2.70;99.90
